Time;durP1;ratioP1;P1;durP2;ratioP2;P2;SDS_P1;SDS_P2;PMS_P1;PMS_P2;Temp;Humidity;BMP_temperature;BMP_pressure;BME280_temperature;BME280_humidity;BME280_pressure;Samples;Min_cycle;Max_cycle;Signal;HPM_P1;HPM_P2
2022/11/23 00:01:22;;;;;;;6.22;3.40;;;;;;;2.70;100.00;97498.75;5037079;28;20107;-76
2022/11/23 00:03:49;;;;;;;10.68;2.78;;;;;;;2.38;100.00;97463.44;5037100;28;20123;-76
2022/11/23 00:06:15;;;;;;;7.20;2.90;;;;;;;2.54;100.00;97489.09;5025912;28;20112;-76
2022/11/23 00:08:41;;;;;;;8.07;3.22;;;;;;;2.42;100.00;97467.38;5046691;28;20501;-76
2022/11/23 00:11:07;;;;;;;5.88;2.22;;;;;;;2.51;100.00;97488.63;5050587;28;20033;-76
2022/11/23 00:13:34;;;;;;;7.50;2.90;;;;;;;2.51;100.00;97493.97;5036884;28;20025;-77
2022/11/23 00:15:59;;;;;;;7.22;2.33;;;;;;;2.54;100.00;97482.91;5032883;28;20021;-77
2022/11/23 00:18:25;;;;;;;10.55;2.72;;;;;;;2.51;100.00;97481.44;5033501;28;20058;-77
2022/11/23 00:20:50;;;;;;;9.60;2.72;;;;;;;2.52;100.00;97490.31;5032760;28;20047;-76
2022/11/23 00:23:15;;;;;;;10.68;3.00;;;;;;;2.40;100.00;97490.75;5035906;28;20379;-77
2022/11/23 00:25:44;;;;;;;9.52;3.33;;;;;;;2.16;100.00;97473.16;5021488;28;20116;-77
2022/11/23 00:28:10;;;;;;;8.48;2.78;;;;;;;2.00;100.00;97473.34;5039908;28;20406;-76
2022/11/23 00:30:35;;;;;;;10.20;3.92;;;;;;;2.15;100.00;97481.38;5050242;28;20032;-76
2022/11/23 00:33:00;;;;;;;12.90;3.50;;;;;;;2.28;100.00;97488.72;5053945;28;20093;-77
2022/11/23 00:35:25;;;;;;;6.22;2.70;;;;;;;2.40;100.00;97505.94;5052725;28;20037;-78
2022/11/23 00:37:51;;;;;;;8.02;2.33;;;;;;;2.63;100.00;97509.34;5034728;28;20021;-77
2022/11/23 00:40:16;;;;;;;6.05;2.25;;;;;;;2.62;100.00;97494.34;5045136;28;20040;-76
2022/11/23 00:42:41;;;;;;;8.70;1.92;;;;;;;2.66;100.00;97483.28;5054349;28;20064;-76
2022/11/23 00:45:07;;;;;;;5.72;1.70;;;;;;;2.72;100.00;97495.88;5036103;28;20045;-76
2022/11/23 00:47:32;;;;;;;8.18;1.92;;;;;;;2.72;100.00;97488.69;5033814;28;20116;-76
2022/11/23 00:49:58;;;;;;;4.85;1.92;;;;;;;2.74;100.00;97485.84;5053211;28;20047;-76
2022/11/23 00:52:23;;;;;;;7.35;2.20;;;;;;;2.81;100.00;97484.09;5053558;28;20036;-76
2022/11/23 00:54:48;;;;;;;6.95;2.17;;;;;;;2.87;100.00;97474.50;5049920;28;20036;-76
2022/11/23 00:57:14;;;;;;;7.75;2.03;;;;;;;3.04;100.00;97502.69;5036952;28;20455;-77
2022/11/23 00:59:39;;;;;;;6.53;2.28;;;;;;;2.97;100.00;97475.06;5053167;28;20415;-76
2022/11/23 01:02:04;;;;;;;6.90;2.30;;;;;;;3.15;100.00;97478.13;5052193;28;20395;-77
2022/11/23 01:04:29;;;;;;;5.28;2.30;;;;;;;3.13;100.00;97477.50;5052401;28;20063;-76
2022/11/23 01:06:58;;;;;;;11.18;2.35;;;;;;;3.23;100.00;97491.38;5039328;28;20021;-76
2022/11/23 01:09:25;;;;;;;6.80;2.17;;;;;;;3.15;100.00;97470.13;5035353;28;20032;-77
2022/11/23 01:11:54;;;;;;;11.25;2.20;;;;;;;3.28;100.00;97494.31;5053246;28;20033;-76
2022/11/23 01:14:21;;;;;;;6.80;2.97;;;;;;;3.32;100.00;97494.75;5035462;28;20032;-76
2022/11/23 01:16:47;;;;;;;9.30;3.97;;;;;;;3.38;100.00;97494.00;5051793;28;20025;-77
2022/11/23 01:19:15;;;;;;;7.30;3.70;;;;;;;3.26;100.00;97469.59;5051780;28;20039;-77
2022/11/23 01:21:40;;;;;;;7.30;3.25;;;;;;;3.39;100.00;97468.91;5050589;28;20103;-76
2022/11/23 01:24:10;;;;;;;7.35;2.47;;;;;;;3.53;100.00;97485.91;5049784;28;20094;-76
2022/11/23 01:26:36;;;;;;;10.68;2.70;;;;;;;3.58;100.00;97486.16;5039328;28;20025;-76
2022/11/23 01:29:01;;;;;;;9.90;2.47;;;;;;;3.48;100.00;97466.94;5051955;28;20123;-76
2022/11/23 01:31:26;;;;;;;7.13;2.30;;;;;;;3.58;100.00;97478.16;5035176;28;20500;-76
2022/11/23 01:33:54;;;;;;;6.45;1.95;;;;;;;3.62;100.00;97482.09;5052662;28;20506;-76
2022/11/23 01:36:21;;;;;;;5.10;2.05;;;;;;;3.69;100.00;97487.50;5034522;28;20025;-76
2022/11/23 01:38:48;;;;;;;6.57;2.33;;;;;;;3.50;100.00;97448.88;5047795;28;20024;-77
2022/11/23 01:41:20;;;;;;;7.30;1.55;;;;;;;3.81;100.00;97488.66;5024453;28;20052;-76
2022/11/23 01:43:47;;;;;;;4.85;1.40;;;;;;;3.82;100.00;97484.13;5032583;28;20487;-76
2022/11/23 01:46:12;;;;;;;3.95;1.67;;;;;;;3.80;100.00;97480.78;5042962;28;20045;-76
2022/11/23 01:48:37;;;;;;;6.30;1.40;;;;;;;3.87;100.00;97481.69;5033725;28;20059;-76
2022/11/23 01:51:12;;;;;;;9.15;1.58;;;;;;;3.76;100.00;97487.56;5034702;28;20143;-78
2022/11/23 01:53:38;;;;;;;6.30;1.83;;;;;;;3.76;100.00;97474.19;5032068;28;20032;-76
2022/11/23 01:56:06;;;;;;;10.68;1.63;;;;;;;3.85;100.00;97499.78;5034080;28;20029;-76
2022/11/23 01:58:36;;;;;;;2.55;1.48;;;;;;;3.58;100.00;97448.72;5034562;28;20071;-78
2022/11/23 02:01:01;;;;;;;6.03;1.33;;;;;;;3.75;100.00;97470.69;5052729;28;20027;-77
2022/11/23 02:03:28;;;;;;;7.75;1.73;;;;;;;3.80;100.00;97464.75;5034206;28;20127;-76
2022/11/23 02:06:00;;;;;;;8.80;1.40;;;;;;;3.70;100.00;97449.88;5052275;28;20033;-76
2022/11/23 02:08:27;;;;;;;6.72;1.40;;;;;;;3.91;100.00;97499.03;5033712;28;20017;-77
2022/11/23 02:10:53;;;;;;;6.00;1.58;;;;;;;3.84;100.00;97495.47;5051772;28;20036;-76
2022/11/23 02:13:18;;;;;;;6.88;2.25;;;;;;;3.89;100.00;97506.41;5049648;28;20056;-76
2022/11/23 02:15:44;;;;;;;7.38;1.40;;;;;;;3.64;100.00;97490.78;5037307;28;20064;-76
2022/11/23 02:18:15;;;;;;;6.35;1.52;;;;;;;3.71;100.00;97494.31;5050987;28;20040;-77
2022/11/23 02:20:42;;;;;;;7.75;1.58;;;;;;;3.61;100.00;97484.97;5045686;28;20036;-77
2022/11/23 02:23:17;;;;;;;4.60;1.55;;;;;;;3.81;100.00;97498.53;5033712;28;20068;-77
2022/11/23 02:25:42;;;;;;;6.90;1.60;;;;;;;3.82;100.00;97502.84;5048210;28;20060;-77
2022/11/23 02:28:10;;;;;;;6.30;1.55;;;;;;;3.76;100.00;97498.28;5034114;28;20056;-77
2022/11/23 02:30:38;;;;;;;6.53;1.70;;;;;;;3.85;100.00;97505.13;5050923;28;20032;-77
2022/11/23 02:33:07;;;;;;;7.88;1.60;;;;;;;3.89;100.00;97509.91;5035791;28;20060;-76
2022/11/23 02:35:33;;;;;;;;;;;;;;;4.01;100.00;97512.91;5051084;28;20017;-76
2022/11/23 02:38:01;;;;;;;4.88;1.67;;;;;;;3.82;100.00;97494.81;5030032;28;19912;-75
2022/11/23 02:40:35;;;;;;;5.85;2.03;;;;;;;3.87;100.00;97495.06;5036533;28;20028;-76
2022/11/23 02:43:01;;;;;;;5.97;2.40;;;;;;;3.86;100.00;97488.06;5050431;28;20017;-80
2022/11/23 02:45:41;;;;;;;9.32;1.83;;;;;;;4.13;100.00;97513.19;5055483;28;20029;-76
2022/11/23 02:48:07;;;;;;;5.15;1.80;;;;;;;4.08;100.00;97491.53;5055497;28;20027;-77
2022/11/23 02:50:32;;;;;;;5.90;1.42;;;;;;;4.01;100.00;97486.16;5032183;28;20021;-77
2022/11/23 02:52:57;;;;;;;3.85;1.65;;;;;;;4.11;100.00;97489.31;5051800;28;20025;-77
2022/11/23 02:55:23;;;;;;;3.88;1.20;;;;;;;4.29;100.00;97504.84;5051321;28;20047;-77
2022/11/23 02:57:49;;;;;;;7.00;1.42;;;;;;;4.36;100.00;97515.63;5028075;28;20033;-78
2022/11/23 03:00:15;;;;;;;6.38;1.50;;;;;;;4.32;100.00;97515.19;5051296;28;20032;-77
2022/11/23 03:02:40;;;;;;;4.43;1.20;;;;;;;4.29;100.00;97509.38;5044139;28;20029;-77
2022/11/23 03:05:06;;;;;;;2.95;1.10;;;;;;;4.27;100.00;97501.56;5055903;28;20494;-78
2022/11/23 03:07:31;;;;;;;4.55;1.58;;;;;;;4.31;100.00;97502.00;5054318;28;20031;-77
2022/11/23 03:09:57;;;;;;;6.30;1.98;;;;;;;4.17;100.00;97483.16;5054601;28;20021;-77
2022/11/23 03:12:22;;;;;;;6.00;1.50;;;;;;;4.31;100.00;97510.03;5052615;28;20064;-77
2022/11/23 03:14:47;;;;;;;5.15;1.50;;;;;;;4.21;100.00;97504.19;5041631;28;20120;-77
2022/11/23 03:17:13;;;;;;;4.97;1.50;;;;;;;4.13;100.00;97494.44;5049085;28;20028;-77
2022/11/23 03:19:38;;;;;;;5.97;1.45;;;;;;;4.24;100.00;97509.16;5053836;28;20035;-77
2022/11/23 03:22:03;;;;;;;3.90;1.05;;;;;;;4.24;100.00;97503.78;5046154;28;20017;-78
2022/11/23 03:24:29;;;;;;;2.15;1.17;;;;;;;4.35;100.00;97513.97;5055618;28;20032;-77
2022/11/23 03:26:54;;;;;;;3.47;1.15;;;;;;;4.26;100.00;97481.16;5023578;28;20025;-77
2022/11/23 03:29:21;;;;;;;8.15;1.40;;;;;;;4.48;100.00;97508.72;5016961;28;20171;-77
2022/11/23 03:31:46;;;;;;;4.15;1.25;;;;;;;4.55;100.00;97512.25;5041964;28;20115;-78
2022/11/23 03:34:11;;;;;;;5.00;1.15;;;;;;;4.39;100.00;97489.28;5044029;28;20475;-76
2022/11/23 03:36:37;;;;;;;3.78;1.00;;;;;;;4.18;100.00;97476.78;5037288;28;20628;-76
2022/11/23 03:39:02;;;;;;;5.32;1.17;;;;;;;4.19;100.00;97496.34;5035159;28;20387;-77
2022/11/23 03:41:27;;;;;;;5.43;1.40;;;;;;;4.09;100.00;97506.59;5031700;28;20025;-76
2022/11/23 03:43:53;;;;;;;8.00;1.65;;;;;;;3.98;100.00;97512.44;5043654;28;20021;-76
2022/11/23 03:46:18;;;;;;;7.40;1.55;;;;;;;3.74;100.00;97499.28;5042596;28;20430;-76
2022/11/23 03:48:43;;;;;;;8.30;2.65;;;;;;;3.67;100.00;97498.41;5041576;28;20037;-76
2022/11/23 03:51:09;;;;;;;5.40;1.40;;;;;;;3.69;100.00;97523.13;5054573;28;20033;-76
2022/11/23 03:53:34;;;;;;;3.22;1.20;;;;;;;3.53;100.00;97490.44;5054921;28;20021;-78
2022/11/23 03:55:59;;;;;;;8.48;1.67;;;;;;;3.59;100.00;97501.22;5037063;28;20070;-76
2022/11/23 03:58:25;;;;;;;3.83;1.23;;;;;;;3.68;100.00;97509.94;5053618;28;20435;-76
2022/11/23 04:00:50;;;;;;;6.53;1.35;;;;;;;3.63;100.00;97507.00;5051432;28;20021;-76
2022/11/23 04:03:15;;;;;;;4.88;2.50;;;;;;;3.66;100.00;97501.25;5036944;28;20449;-76
2022/11/23 04:05:41;;;;;;;5.60;1.08;;;;;;;3.70;100.00;97497.19;5036676;28;20020;-76
2022/11/23 04:08:06;;;;;;;5.10;1.13;;;;;;;3.80;100.00;97496.84;5058621;28;20059;-76
2022/11/23 04:10:31;;;;;;;4.32;1.08;;;;;;;3.95;100.00;97492.25;5044376;28;20120;-76
2022/11/23 04:12:57;;;;;;;6.78;1.15;;;;;;;4.02;100.00;97476.25;5035983;28;20060;-78
2022/11/23 04:15:22;;;;;;;3.25;1.23;;;;;;;4.01;100.00;97477.25;5035305;28;20051;-76
2022/11/23 04:17:47;;;;;;;5.85;1.15;;;;;;;3.99;100.00;97473.97;5033741;28;20028;-78
2022/11/23 04:20:14;;;;;;;4.03;1.10;;;;;;;4.16;100.00;97472.63;5050083;28;20021;-76
2022/11/23 04:22:39;;;;;;;5.65;1.30;;;;;;;4.18;100.00;97457.22;5036311;28;20035;-76
2022/11/23 04:25:05;;;;;;;6.00;1.40;;;;;;;4.15;100.00;97446.91;5054502;28;20025;-76
2022/11/23 04:27:30;;;;;;;6.50;1.15;;;;;;;4.28;100.00;97460.38;5035152;28;20025;-75
2022/11/23 04:29:56;;;;;;;5.05;2.33;;;;;;;4.28;100.00;97451.53;5053919;28;20048;-76
2022/11/23 04:32:21;;;;;;;5.38;1.35;;;;;;;4.32;100.00;97466.16;5033426;28;20029;-76
2022/11/23 04:34:46;;;;;;;5.05;1.08;;;;;;;4.23;100.00;97464.66;5039615;28;20028;-77
2022/11/23 04:37:12;;;;;;;3.17;1.20;;;;;;;4.15;100.00;97450.41;5044511;28;20120;-76
2022/11/23 04:39:37;;;;;;;4.45;0.90;;;;;;;4.20;100.00;97470.41;5043883;28;20064;-76
2022/11/23 04:42:02;;;;;;;3.40;1.05;;;;;;;4.17;100.00;97461.75;5036075;28;20467;-77
2022/11/23 04:44:28;;;;;;;2.03;0.90;;;;;;;4.09;100.00;97437.81;5036271;28;20063;-76
2022/11/23 04:46:53;;;;;;;5.65;1.30;;;;;;;4.27;100.00;97455.22;5024950;28;20410;-77
2022/11/23 04:49:18;;;;;;;9.63;1.30;;;;;;;4.32;100.00;97463.47;5035248;28;20013;-77
2022/11/23 04:51:44;;;;;;;4.68;1.60;;;;;;;4.34;100.00;97469.47;5036262;28;20189;-77
2022/11/23 04:54:09;;;;;;;8.40;1.20;;;;;;;4.24;100.00;97450.25;5035969;28;20558;-77
2022/11/23 04:56:34;;;;;;;2.63;0.93;;;;;;;4.24;100.00;97460.97;5035720;28;20029;-77
2022/11/23 04:59:00;;;;;;;5.07;1.45;;;;;;;4.26;100.00;97469.63;5053925;28;20020;-78
2022/11/23 05:01:25;;;;;;;3.30;0.93;;;;;;;4.26;100.00;97465.09;5036936;28;20479;-77
2022/11/23 05:03:50;;;;;;;4.50;1.10;;;;;;;4.25;100.00;97470.66;5036107;28;20029;-77
2022/11/23 05:06:16;;;;;;;6.70;1.40;;;;;;;4.03;100.00;97435.91;5034604;28;20086;-77
2022/11/23 05:08:42;;;;;;;4.78;1.25;;;;;;;4.07;100.00;97455.91;5043227;28;20025;-77
2022/11/23 05:11:07;;;;;;;4.75;1.20;;;;;;;3.91;100.00;97421.44;5047506;28;20127;-76
2022/11/23 05:13:32;;;;;;;8.57;1.20;;;;;;;3.99;100.00;97461.41;5043057;28;20036;-78
2022/11/23 05:15:59;;;;;;;6.45;1.27;;;;;;;3.98;100.00;97464.28;5049728;28;20029;-76
2022/11/23 05:18:24;;;;;;;2.90;0.85;;;;;;;3.91;100.00;97453.53;5035739;28;20462;-76
2022/11/23 05:20:50;;;;;;;4.78;0.90;;;;;;;3.76;100.00;97448.25;5053673;28;20025;-76
2022/11/23 05:23:15;;;;;;;4.95;0.95;;;;;;;3.79;100.00;97463.94;5053385;28;20056;-77
2022/11/23 05:25:40;;;;;;;4.18;1.20;;;;;;;3.71;100.00;97448.84;5035305;28;20031;-76
2022/11/23 05:28:06;;;;;;;7.10;1.25;;;;;;;3.86;100.00;97478.19;5043459;28;20021;-77
2022/11/23 05:30:31;;;;;;;3.97;1.00;;;;;;;3.72;100.00;97450.50;5043580;28;20036;-77
2022/11/23 05:33:01;;;;;;;5.75;1.05;;;;;;;3.62;100.00;97443.84;5043451;28;20122;-79
2022/11/23 05:35:27;;;;;;;3.55;1.00;;;;;;;3.48;100.00;97442.88;5049965;28;20485;-77
2022/11/23 05:37:52;;;;;;;8.18;1.98;;;;;;;3.59;100.00;97461.09;5050639;28;20039;-77
2022/11/23 05:40:17;;;;;;;6.80;1.20;;;;;;;3.49;100.00;97468.59;5052524;28;20024;-78
2022/11/23 05:42:43;;;;;;;4.90;1.42;;;;;;;3.36;100.00;97458.63;5049799;28;20570;-77
2022/11/23 05:45:08;;;;;;;5.50;1.33;;;;;;;3.41;100.00;97474.09;5051591;28;20675;-77
2022/11/23 05:47:34;;;;;;;3.38;1.10;;;;;;;3.35;100.00;97466.81;5051466;28;20017;-77
2022/11/23 05:49:59;;;;;;;4.53;1.30;;;;;;;3.30;100.00;97470.03;5050878;28;20100;-76
2022/11/23 05:52:25;;;;;;;5.80;1.45;;;;;;;3.31;100.00;97482.41;5033404;28;20687;-81
2022/11/23 05:54:50;;;;;;;6.35;1.90;;;;;;;3.25;100.00;97486.69;5037995;28;20037;-83
2022/11/23 05:57:17;;;;;;;4.10;1.25;;;;;;;3.21;100.00;97481.88;5042694;28;20111;-81
2022/11/23 05:59:43;;;;;;;4.18;1.35;;;;;;;3.01;100.00;97439.75;5034859;28;20025;-80
2022/11/23 06:02:08;;;;;;;5.22;1.92;;;;;;;3.17;100.00;97460.06;5038145;28;20107;-80
2022/11/23 06:04:33;;;;;;;6.97;1.40;;;;;;;3.09;100.00;97446.81;5040628;28;20497;-80
2022/11/23 06:06:59;;;;;;;11.02;1.92;;;;;;;3.17;100.00;97457.41;5038601;28;20049;-81
2022/11/23 06:09:32;;;;;;;11.60;3.33;;;;;;;3.20;100.00;97464.22;5043270;28;20021;-81
2022/11/23 06:11:58;;;;;;;13.77;2.60;;;;;;;3.19;100.00;97460.69;5049573;28;20057;-80
2022/11/23 06:14:23;;;;;;;7.70;2.58;;;;;;;3.21;100.00;97473.88;5038597;28;20396;-84
2022/11/23 06:16:49;;;;;;;11.98;2.95;;;;;;;3.06;100.00;97455.19;5038490;28;20032;-82
2022/11/23 06:19:15;;;;;;;9.52;3.05;;;;;;;3.08;100.00;97453.16;5035512;28;20100;-81
2022/11/23 06:21:40;;;;;;;13.27;3.67;;;;;;;2.54;100.00;97373.47;5054153;28;20384;-82
2022/11/23 06:24:05;;;;;;;11.73;2.33;;;;;;;2.49;100.00;97386.53;5050565;28;20029;-81
2022/11/23 06:26:31;;;;;;;7.60;2.55;;;;;;;2.90;100.00;97474.97;5059031;28;20031;-86
2022/11/23 06:28:57;;;;;;;10.27;2.60;;;;;;;2.67;100.00;97453.72;5043466;28;20052;-84
2022/11/23 06:31:22;;;;;;;8.60;2.45;;;;;;;2.44;100.00;97424.50;5045226;28;20029;-81
2022/11/23 06:33:47;;;;;;;4.22;2.00;;;;;;;2.38;100.00;97455.44;5040007;28;20025;-84
2022/11/23 06:36:14;;;;;;;5.70;1.92;;;;;;;2.29;100.00;97455.69;5046646;28;20032;-84
2022/11/23 06:38:39;;;;;;;7.50;2.33;;;;;;;2.32;100.00;97460.66;5050078;28;20013;-86
2022/11/23 06:41:05;;;;;;;5.78;2.10;;;;;;;2.43;100.00;97449.50;5045151;28;20033;-82
2022/11/23 06:43:31;;;;;;;7.55;1.55;;;;;;;3.06;100.00;97480.06;5035856;28;20036;-81
2022/11/23 06:45:56;;;;;;;5.72;1.40;;;;;;;3.33;100.00;97480.38;5037455;28;20063;-81
2022/11/23 06:48:22;;;;;;;9.65;1.13;;;;;;;3.40;100.00;97465.22;5038235;28;20021;-81
2022/11/23 06:50:48;;;;;;;5.03;1.10;;;;;;;3.35;100.00;97453.44;5041118;28;20029;-82
2022/11/23 06:53:14;;;;;;;4.82;1.50;;;;;;;3.56;100.00;97482.03;5035068;28;20033;-82
2022/11/23 06:55:39;;;;;;;7.68;1.60;;;;;;;3.60;100.00;97472.63;5027850;28;20072;-81
2022/11/23 06:58:05;;;;;;;4.85;1.63;;;;;;;3.47;100.00;97457.28;5038163;28;20025;-83
2022/11/23 07:00:31;;;;;;;6.32;1.73;;;;;;;3.79;100.00;97479.16;5034894;28;20029;-81
2022/11/23 07:02:57;;;;;;;2.72;1.13;;;;;;;3.99;100.00;97482.81;5036992;28;20102;-74
2022/11/23 07:05:23;;;;;;;5.38;1.50;;;;;;;4.23;100.00;97491.44;5030925;28;20072;-76
2022/11/23 07:07:49;;;;;;;7.60;1.50;;;;;;;4.29;100.00;97474.59;5047944;28;20055;-78
2022/11/23 07:10:14;;;;;;;5.40;2.00;;;;;;;4.48;100.00;97483.75;5029868;28;20029;-76
2022/11/23 07:12:40;;;;;;;10.80;3.35;;;;;;;4.36;100.00;97452.19;5041222;28;20430;-76
2022/11/23 07:15:06;;;;;;;10.85;3.08;;;;;;;4.65;100.00;97470.88;5048821;28;20054;-77
2022/11/23 07:17:31;;;;;;;10.18;3.03;;;;;;;4.72;100.00;97477.94;5029995;28;20020;-77
2022/11/23 07:19:56;;;;;;;9.85;2.85;;;;;;;4.88;100.00;97495.53;5024378;28;20475;-76
2022/11/23 07:22:22;;;;;;;8.77;2.65;;;;;;;5.03;100.00;97472.09;5029442;28;20466;-77
2022/11/23 07:24:47;;;;;;;9.38;3.25;;;;;;;5.21;100.00;97494.81;5025171;28;20029;-76
2022/11/23 07:27:12;;;;;;;5.93;2.22;;;;;;;5.32;100.00;97486.22;5028664;28;20025;-77
2022/11/23 07:29:38;;;;;;;8.88;2.33;;;;;;;5.26;100.00;97465.53;5044908;28;20029;-75
2022/11/23 07:32:05;;;;;;;6.20;1.88;;;;;;;5.62;100.00;97481.28;5030870;28;20037;-80
2022/11/23 07:34:31;;;;;;;6.18;1.63;;;;;;;5.72;100.00;97470.19;5031349;28;20043;-81
2022/11/23 07:36:56;;;;;;;7.07;1.73;;;;;;;5.92;100.00;97470.16;5031966;28;20418;-75
2022/11/23 07:39:21;;;;;;;7.05;2.33;;;;;;;6.17;100.00;97467.72;5047958;28;20017;-84
2022/11/23 07:41:49;;;;;;;6.32;1.92;;;;;;;6.32;100.00;97471.00;5035406;28;20022;-74
2022/11/23 07:44:15;;;;;;;7.50;2.58;;;;;;;6.51;100.00;97465.81;5051481;28;20025;-75
2022/11/23 07:46:40;;;;;;;5.88;1.63;;;;;;;6.52;100.00;97478.19;5038969;28;20017;-81
2022/11/23 07:49:05;;;;;;;6.47;2.10;;;;;;;6.69;100.00;97487.47;5045405;28;20085;-75
2022/11/23 07:51:31;;;;;;;5.60;1.58;;;;;;;6.72;100.00;97496.97;5040443;28;20108;-74
2022/11/23 07:53:56;;;;;;;6.93;1.58;;;;;;;6.68;100.00;97493.88;5032762;28;20021;-75
2022/11/23 07:56:22;;;;;;;4.40;1.65;;;;;;;6.72;100.00;97503.16;5037000;28;20483;-77
2022/11/23 07:58:47;;;;;;;6.05;1.40;;;;;;;6.73;100.00;97472.59;5052772;28;20025;-76
2022/11/23 08:01:17;;;;;;;9.57;1.80;;;;;;;6.99;100.00;97473.50;5035325;28;20536;-78
2022/11/23 08:03:45;;;;;;;3.90;1.17;;;;;;;7.16;100.00;97487.31;5049081;28;20104;-77
2022/11/23 08:06:12;;;;;;;5.93;1.08;;;;;;;7.45;100.00;97502.88;5029346;28;20500;-76
2022/11/23 08:08:38;;;;;;;3.90;1.95;;;;;;;7.57;100.00;97483.34;5046724;28;20035;-77
2022/11/23 08:11:08;;;;;;;5.80;1.10;;;;;;;8.18;100.00;97490.78;5035174;28;20410;-80
2022/11/23 08:13:33;;;;;;;12.20;3.10;;;;;;;8.59;100.00;97472.38;5032141;28;20028;-75
2022/11/23 08:15:59;;;;;;;9.88;3.47;;;;;;;9.55;100.00;97463.53;5045844;28;20021;-79
2022/11/23 08:18:25;;;;;;;6.22;1.67;;;;;;;10.47;100.00;97481.22;5049406;28;20093;-75
2022/11/23 08:20:51;;;;;;;4.53;1.90;;;;;;;10.71;100.00;97490.97;5045802;28;20487;-78
2022/11/23 08:23:16;;;;;;;4.70;1.20;;;;;;;11.06;100.00;97483.88;5045179;28;20029;-78
2022/11/23 08:25:42;;;;;;;5.40;1.70;;;;;;;12.55;87.73;97487.38;5039411;28;20029;-78
2022/11/23 08:28:07;;;;;;;7.20;1.60;;;;;;;14.11;72.89;97458.81;5036062;28;20390;-77
2022/11/23 08:30:33;;;;;;;5.85;1.45;;;;;;;15.74;60.13;97485.34;5035698;28;20029;-76
2022/11/23 08:33:03;;;;;;;3.38;1.23;;;;;;;16.79;55.76;97482.16;5053190;28;20024;-76
2022/11/23 08:35:29;;;;;;;8.40;2.60;;;;;;;14.78;58.50;97462.06;5040406;28;20086;-76
2022/11/23 08:37:54;;;;;;;5.75;1.85;;;;;;;13.04;63.29;97484.81;5050022;28;20107;-78
2022/11/23 08:40:19;;;;;;;4.35;1.38;;;;;;;11.48;72.26;97449.25;5031071;28;20025;-76
2022/11/23 08:42:46;;;;;;;6.68;1.00;;;;;;;11.08;79.78;97482.56;5026771;28;20556;-75
2022/11/23 08:45:11;;;;;;;6.53;1.70;;;;;;;11.00;84.69;97484.81;5033226;28;20075;-81
2022/11/23 08:47:37;;;;;;;6.28;2.22;;;;;;;10.95;83.85;97450.34;5045954;28;20025;-76
2022/11/23 08:50:02;;;;;;;3.83;1.27;;;;;;;10.49;86.40;97446.66;5030593;28;20078;-76
2022/11/23 08:52:28;;;;;;;3.63;0.80;;;;;;;10.27;87.47;97476.13;5026731;28;20033;-76
2022/11/23 08:54:53;;;;;;;4.57;0.88;;;;;;;10.48;87.82;97451.25;5033144;28;20103;-76
2022/11/23 08:57:18;;;;;;;6.32;1.92;;;;;;;10.83;85.65;97474.72;5045545;28;20037;-77
2022/11/23 08:59:44;;;;;;;7.50;1.02;;;;;;;10.63;86.90;97475.09;5025001;28;20013;-76
2022/11/23 09:02:13;;;;;;;8.70;1.30;;;;;;;9.96;95.85;97490.78;5049930;28;20108;-76
2022/11/23 09:04:39;;;;;;;7.40;1.48;;;;;;;9.84;95.98;97486.16;5029402;28;20059;-76
2022/11/23 09:07:05;;;;;;;2.55;0.82;;;;;;;10.17;94.93;97486.69;5018286;28;20036;-77
2022/11/23 09:09:31;;;;;;;4.57;1.25;;;;;;;11.65;83.92;97494.50;5027595;28;20247;-76
2022/11/23 09:11:56;;;;;;;7.75;2.30;;;;;;;12.11;75.25;97449.28;5035555;28;20047;-80
2022/11/23 09:14:22;;;;;;;9.45;1.83;;;;;;;11.87;73.22;97445.88;5025740;28;20026;-78
2022/11/23 09:16:47;;;;;;;7.90;1.75;;;;;;;11.97;75.11;97500.25;5032545;28;20436;-78
2022/11/23 09:19:13;;;;;;;6.68;1.50;;;;;;;11.96;73.77;97491.31;5051831;28;20031;-76
2022/11/23 09:21:38;;;;;;;7.78;2.08;;;;;;;12.79;71.35;97493.44;5052673;28;20032;-77
2022/11/23 09:24:04;;;;;;;6.20;1.83;;;;;;;13.41;66.94;97476.06;5053372;28;20031;-76
2022/11/23 09:26:31;;;;;;;7.72;1.65;;;;;;;13.27;65.70;97487.31;5047393;28;20147;-77
2022/11/23 09:28:57;;;;;;;8.60;1.40;;;;;;;13.61;65.88;97498.03;5045765;28;20505;-76
2022/11/23 09:31:22;;;;;;;4.30;1.38;;;;;;;14.15;61.36;97473.56;5031395;28;20037;-74
2022/11/23 09:33:52;;;;;;;4.03;1.25;;;;;;;15.91;56.90;97499.59;5034521;28;20024;-74
2022/11/23 09:36:17;;;;;;;5.63;1.67;;;;;;;17.04;53.94;97478.53;5028262;28;20033;-74
2022/11/23 09:38:42;;;;;;;6.60;1.30;;;;;;;17.42;51.89;97486.31;5039976;28;20077;-74
2022/11/23 09:41:29;;;;;;;7.63;1.70;;;;;;;18.35;49.79;97490.19;5051379;28;20027;-75
2022/11/23 09:44:41;;;;;;;6.35;1.20;;;;;;;18.89;48.66;97491.09;5047482;28;20032;-74
2022/11/23 09:47:41;;;;;;;6.47;1.90;;;;;;;17.95;48.89;97486.66;4989351;28;20082;-74
2022/11/23 09:50:06;;;;;;;;;;;;;;;18.24;48.39;97488.66;4981215;28;20026;-74
2022/11/23 09:52:33;;;;;;;7.00;1.57;;;;;;;18.64;47.86;97495.69;5029689;28;19951;-74
2022/11/23 09:55:04;;;;;;;8.43;1.38;;;;;;;18.75;47.04;97490.97;5028118;28;20835;-74
2022/11/23 09:57:33;;;;;;;5.63;1.23;;;;;;;18.61;46.52;97480.66;5036290;28;20159;-74
2022/11/23 10:00:07;;;;;;;7.95;1.63;;;;;;;18.77;46.33;97486.03;5043016;28;20100;-74
2022/11/23 10:02:39;;;;;;;3.60;1.30;;;;;;;19.77;45.71;97489.81;5043235;28;20036;-74
2022/11/23 10:05:06;;;;;;;5.72;1.60;;;;;;;19.48;45.05;97485.22;5015840;28;20025;-73
2022/11/23 10:07:31;;;;;;;7.45;1.88;;;;;;;19.89;44.48;97476.47;5048114;28;20028;-74
2022/11/23 10:10:11;;;;;;;5.55;1.40;;;;;;;18.30;46.80;97485.56;5040169;28;20025;-74
2022/11/23 10:13:07;;;;;;;5.90;1.17;;;;;;;18.45;46.53;97457.25;5023670;28;20033;-71
2022/11/23 10:15:52;;;;;;;5.75;1.10;;;;;;;19.42;45.02;97450.75;5020073;28;20034;-72
2022/11/23 10:18:46;;;;;;;9.77;1.60;;;;;;;19.05;45.10;97456.97;5027024;28;20509;-74
2022/11/23 10:21:33;;;;;;;6.50;1.10;;;;;;;19.81;43.71;97463.44;5025450;28;20054;-73
2022/11/23 10:24:04;;;;;;;2.40;1.00;;;;;;;20.70;42.23;97464.53;5024280;28;20049;-75
2022/11/23 10:26:37;;;;;;;3.63;1.50;;;;;;;20.58;41.97;97451.25;5026080;28;20552;-81
2022/11/23 10:29:35;;;;;;;2.83;1.00;;;;;;;20.63;42.03;97451.16;5021559;28;20024;-80
2022/11/23 10:32:45;;;;;;;5.07;1.30;;;;;;;21.61;39.81;97453.69;5070114;28;20391;-69
2022/11/23 10:35:17;;;;;;;7.55;1.67;;;;;;;21.07;41.19;97446.25;5054951;28;20033;-71
2022/11/23 10:37:42;;;;;;;5.60;1.80;;;;;;;20.35;40.56;97456.53;5061432;28;20544;-69
2022/11/23 10:40:15;;;;;;;4.20;1.20;;;;;;;21.91;39.76;97454.13;5054124;28;20151;-69
2022/11/23 10:42:48;;;;;;;5.78;0.98;;;;;;;21.59;38.96;97452.38;5052896;28;20021;-67
2022/11/23 10:45:24;;;;;;;4.82;1.30;;;;;;;21.77;38.84;97447.81;5053648;28;20044;-67
2022/11/23 10:47:53;;;;;;;6.47;1.23;;;;;;;21.41;39.35;97445.88;5050649;28;20075;-66
2022/11/23 10:50:25;;;;;;;3.08;1.10;;;;;;;21.46;39.05;97445.75;5052067;28;20067;-68
2022/11/23 10:52:54;;;;;;;8.63;1.77;;;;;;;20.89;39.64;97447.97;5054054;28;20033;-67
2022/11/23 10:55:25;;;;;;;4.38;1.48;;;;;;;20.68;40.19;97445.59;5054534;28;20118;-67
2022/11/23 10:57:50;;;;;;;5.13;1.23;;;;;;;20.66;40.76;97449.75;5047948;28;20033;-67
2022/11/23 11:00:18;;;;;;;4.60;1.25;;;;;;;21.21;39.97;97444.31;5049037;28;20048;-68
2022/11/23 11:02:48;;;;;;;6.60;1.30;;;;;;;20.12;40.98;97441.81;5053839;28;20025;-69
2022/11/23 11:05:25;;;;;;;4.80;1.30;;;;;;;19.59;41.87;97449.44;5065341;28;20396;-68
2022/11/23 11:07:51;;;;;;;5.63;1.38;;;;;;;18.99;43.85;97452.63;5056067;28;20021;-68
2022/11/23 11:11:00;;;;;;;5.72;1.42;;;;;;;19.64;42.82;97436.44;5052257;28;20029;-68
2022/11/23 11:13:25;;;;;;;5.85;1.45;;;;;;;21.07;40.17;97436.06;5044234;28;20091;-68
2022/11/23 11:16:23;;;;;;;5.57;1.25;;;;;;;21.49;38.92;97422.31;5054273;28;20075;-68
2022/11/23 11:18:48;;;;;;;5.97;1.30;;;;;;;21.52;38.70;97430.75;5059966;28;20029;-68
2022/11/23 11:21:23;;;;;;;5.60;1.30;;;;;;;20.11;41.23;97422.88;5064643;28;20067;-68
2022/11/23 11:23:56;;;;;;;6.70;1.48;;;;;;;20.44;40.59;97429.22;5048507;28;20025;-58
2022/11/23 11:26:24;;;;;;;5.57;1.50;;;;;;;20.00;40.11;97438.72;5047024;28;20036;-57
2022/11/23 11:28:53;;;;;;;5.22;1.40;;;;;;;21.46;39.16;97423.75;5070063;28;20025;-58
2022/11/23 11:31:49;;;;;;;4.38;1.30;;;;;;;20.56;39.48;97437.81;5059701;28;20039;-60
2022/11/23 11:34:28;;;;;;;5.50;1.48;;;;;;;19.75;41.16;97436.34;5054960;28;20070;-63
2022/11/23 11:37:20;;;;;;;4.65;1.33;;;;;;;19.88;40.54;97425.41;5048191;28;20020;-63